createdAt,value
2022-12-27T00:00:24.104Z,11.69
2022-12-27T00:05:26.256Z,11.77
2022-12-27T00:10:28.273Z,11.81
2022-12-27T00:15:30.388Z,11.89
2022-12-27T00:20:32.273Z,12.08
2022-12-27T00:25:34.845Z,12.05
2022-12-27T00:30:36.686Z,12.07
2022-12-27T00:35:39.410Z,12.29
2022-12-27T00:40:42.977Z,12.08
2022-12-27T00:45:45.719Z,12.22
2022-12-27T00:50:48.312Z,12.35
2022-12-27T00:55:50.211Z,12.15
2022-12-27T01:00:52.553Z,12.38
2022-12-27T01:05:54.678Z,12.52
2022-12-27T01:10:56.596Z,12.36
2022-12-27T01:15:58.599Z,12.40
2022-12-27T01:21:05.336Z,12.40
2022-12-27T01:26:11.493Z,12.30
2022-12-27T01:31:16.108Z,12.31
2022-12-27T01:36:20.871Z,12.50
2022-12-27T01:41:45.329Z,12.51
2022-12-27T01:46:47.354Z,12.63
2022-12-27T01:51:49.250Z,12.67
2022-12-27T01:56:52.216Z,12.57
2022-12-27T02:01:54.497Z,12.58
2022-12-27T02:06:57.791Z,12.65
2022-12-27T02:12:01.993Z,12.57
2022-12-27T02:17:10.913Z,12.47
2022-12-27T02:22:57.690Z,12.48
2022-12-27T02:28:20.199Z,12.61
2022-12-27T02:33:28.275Z,12.33
2022-12-27T02:38:37.802Z,12.45
2022-12-27T02:43:58.099Z,12.51
2022-12-27T02:49:18.427Z,12.40
2022-12-27T02:54:32.130Z,12.51
2022-12-27T03:00:11.520Z,12.72
2022-12-27T03:05:45.929Z,12.33
2022-12-27T03:11:17.143Z,12.52
2022-12-27T03:16:32.977Z,12.58
2022-12-27T03:22:06.349Z,12.35
2022-12-27T03:27:30.987Z,12.27
2022-12-27T03:33:08.164Z,12.03
2022-12-27T03:38:13.992Z,11.93
2022-12-27T03:43:16.521Z,11.71
2022-12-27T03:48:23.202Z,11.30
2022-12-27T03:53:34.310Z,11.26
2022-12-27T03:58:36.544Z,11.23
2022-12-27T04:03:38.471Z,8.71
2022-12-27T04:08:58.750Z,7.82
2022-12-27T04:14:19.317Z,7.97
2022-12-27T04:19:39.602Z,6.86
2022-12-27T04:24:59.768Z,5.63
2022-12-27T04:30:20.247Z,5.85
2022-12-27T04:35:22.182Z,5.67
2022-12-27T04:40:42.462Z,6.34
2022-12-27T04:46:03.015Z,6.59
2022-12-27T04:51:24.566Z,7.30
2022-12-27T04:56:26.475Z,7.58
2022-12-27T05:01:46.768Z,7.46
2022-12-27T05:06:48.733Z,7.24
2022-12-27T05:12:19.788Z,6.86
2022-12-27T05:17:22.469Z,7.18
2022-12-27T05:22:42.956Z,7.03
2022-12-27T05:27:44.851Z,7.03
2022-12-27T05:32:46.702Z,6.54
2022-12-27T05:37:54.748Z,6.40
2022-12-27T05:43:01.514Z,6.58
2022-12-27T05:48:03.613Z,6.14
2022-12-27T05:53:05.868Z,6.02
2022-12-27T05:58:07.995Z,6.14
2022-12-27T06:03:09.975Z,6.53
2022-12-27T06:08:12.247Z,6.51
2022-12-27T06:13:14.292Z,6.17
2022-12-27T06:18:16.294Z,6.55
2022-12-27T06:23:18.525Z,6.66
2022-12-27T06:28:20.382Z,6.53
2022-12-27T06:33:22.303Z,6.69
2022-12-27T06:38:24.314Z,6.78
2022-12-27T06:43:26.427Z,6.61
2022-12-27T06:48:29.061Z,6.69
2022-12-27T06:53:30.939Z,6.76
2022-12-27T06:58:32.921Z,6.73
2022-12-27T07:03:34.885Z,6.84
2022-12-27T07:08:37.530Z,6.91
2022-12-27T07:13:45.479Z,6.83
2022-12-27T07:18:49.969Z,6.33
2022-12-27T07:23:53.114Z,6.57
2022-12-27T07:28:56.445Z,6.72
2022-12-27T07:34:00.353Z,6.87
2022-12-27T07:39:02.363Z,6.73
2022-12-27T07:44:04.732Z,6.83
2022-12-27T07:49:15.617Z,7.23
2022-12-27T07:54:19.784Z,7.25
2022-12-27T07:59:22.418Z,7.38
2022-12-27T08:04:24.570Z,7.18
2022-12-27T08:09:31.059Z,7.20
2022-12-27T08:14:32.975Z,7.34
2022-12-27T08:19:35.089Z,7.37
2022-12-27T08:24:38.442Z,7.27
2022-12-27T08:29:40.374Z,7.04
2022-12-27T08:34:42.293Z,7.40
2022-12-27T08:39:44.159Z,7.61
2022-12-27T08:44:46.080Z,7.75
2022-12-27T08:49:47.905Z,7.68
2022-12-27T08:54:49.983Z,7.56
2022-12-27T08:59:51.895Z,7.92
2022-12-27T09:04:53.815Z,8.28
2022-12-27T09:09:55.765Z,8.14
2022-12-27T09:14:59.563Z,7.75
2022-12-27T09:20:01.876Z,8.87
2022-12-27T09:25:05.201Z,8.72
2022-12-27T09:30:08.500Z,8.73
2022-12-27T09:35:10.423Z,8.88
2022-12-27T09:40:17.651Z,8.41
2022-12-27T09:45:22.359Z,8.48
2022-12-27T09:50:38.822Z,8.12
2022-12-27T09:55:45.953Z,8.53
2022-12-27T10:00:50.623Z,8.23
2022-12-27T10:06:04.783Z,8.83
2022-12-27T10:11:37.006Z,8.68
2022-12-27T10:16:50.627Z,9.11
2022-12-27T10:22:01.942Z,9.18
2022-12-27T10:27:14.366Z,8.61
2022-12-27T10:32:16.515Z,8.56
2022-12-27T10:37:18.586Z,9.33
2022-12-27T10:42:38.488Z,9.51
2022-12-27T10:47:40.821Z,9.17
2022-12-27T10:52:44.026Z,8.82
2022-12-27T10:57:45.986Z,8.36
2022-12-27T11:02:58.991Z,8.78
2022-12-27T11:08:20.924Z,8.42
2022-12-27T11:13:22.822Z,8.51
2022-12-27T11:18:24.686Z,8.01
2022-12-27T11:23:35.798Z,8.29
2022-12-27T11:28:44.252Z,8.68
2022-12-27T11:33:52.157Z,9.15
2022-12-27T11:38:54.091Z,8.73
2022-12-27T11:43:59.024Z,8.73
2022-12-27T11:49:02.814Z,8.32
2022-12-27T11:54:29.911Z,8.15
2022-12-27T12:00:02.899Z,7.65
2022-12-27T12:05:25.330Z,8.15
2022-12-27T12:10:33.136Z,8.56
2022-12-27T12:16:05.391Z,9.25
2022-12-27T12:21:32.095Z,9.27
2022-12-27T12:26:58.597Z,9.21
2022-12-27T12:32:00.575Z,8.95
2022-12-27T12:37:21.986Z,8.85
2022-12-27T12:43:04.404Z,8.09
2022-12-27T12:48:24.624Z,8.01
2022-12-27T12:53:52.361Z,8.12
2022-12-27T12:59:31.461Z,8.14
2022-12-27T13:04:41.869Z,8.58
2022-12-27T13:10:22.738Z,8.90
2022-12-27T13:15:55.446Z,9.26
2022-12-27T13:21:06.632Z,9.40
2022-12-27T13:26:20.564Z,9.05
2022-12-27T13:31:25.619Z,9.37
2022-12-27T13:37:03.031Z,9.42
2022-12-27T13:42:33.268Z,9.30
2022-12-27T13:48:02.993Z,9.53
2022-12-27T13:53:38.860Z,9.10
2022-12-27T13:58:59.277Z,8.92
2022-12-27T14:04:10.456Z,8.98
2022-12-27T14:09:15.548Z,8.87
2022-12-27T14:14:19.086Z,9.02
2022-12-27T14:20:02.490Z,8.63
2022-12-27T14:25:38.049Z,8.34
2022-12-27T14:30:42.640Z,8.75
2022-12-27T14:36:15.474Z,8.95
2022-12-27T14:41:54.989Z,9.04
2022-12-27T14:47:13.450Z,8.95
2022-12-27T14:52:27.372Z,8.87
2022-12-27T14:57:55.480Z,8.86
2022-12-27T15:03:16.131Z,8.88
2022-12-27T15:08:26.974Z,8.90
2022-12-27T15:14:02.970Z,9.10
2022-12-27T15:19:26.751Z,8.85
2022-12-27T15:24:41.486Z,8.76
2022-12-27T15:30:02.365Z,7.92
2022-12-27T15:35:23.984Z,7.73
2022-12-27T15:40:34.955Z,8.45
2022-12-27T15:45:55.073Z,8.52
2022-12-27T15:51:36.736Z,8.63
2022-12-27T15:57:13.702Z,8.36
2022-12-27T16:02:44.740Z,8.62
2022-12-27T16:07:51.094Z,8.60
2022-12-27T16:13:09.591Z,8.45
2022-12-27T16:18:23.358Z,8.59
2022-12-27T16:23:32.975Z,8.68
2022-12-27T16:28:37.138Z,8.36
2022-12-27T16:33:41.289Z,8.56
2022-12-27T16:38:52.084Z,8.39
2022-12-27T16:44:00.422Z,8.24
2022-12-27T16:49:23.827Z,8.32
2022-12-27T16:54:46.373Z,8.37
2022-12-27T16:59:59.834Z,8.34
2022-12-27T17:05:01.990Z,8.28
2022-12-27T17:10:25.246Z,7.99
2022-12-27T17:15:27.698Z,8.27
2022-12-27T17:20:31.533Z,8.37
2022-12-27T17:25:45.876Z,8.24
2022-12-27T17:31:20.077Z,8.15
2022-12-27T17:36:31.102Z,7.74
2022-12-27T17:42:34.316Z,7.83
2022-12-27T17:48:23.042Z,8.07
2022-12-27T17:53:43.905Z,8.29
2022-12-27T17:58:45.849Z,8.06
2022-12-27T18:03:48.418Z,8.04
2022-12-27T18:08:50.720Z,8.15
2022-12-27T18:13:56.662Z,8.19
2022-12-27T18:19:01.710Z,8.37
2022-12-27T18:24:23.404Z,8.01
2022-12-27T18:29:25.731Z,8.45
2022-12-27T18:34:33.213Z,8.34
2022-12-27T18:39:39.930Z,8.21
2022-12-27T18:44:49.188Z,8.20
2022-12-27T18:50:00.194Z,8.21
2022-12-27T18:55:26.657Z,8.43
2022-12-27T19:00:29.325Z,8.06
2022-12-27T19:05:31.447Z,8.16
2022-12-27T19:10:33.805Z,8.22
2022-12-27T19:15:44.926Z,8.19
2022-12-27T19:20:55.943Z,8.23
2022-12-27T19:26:17.777Z,8.27
2022-12-27T19:31:22.136Z,8.02
2022-12-27T19:36:28.860Z,8.08
2022-12-27T19:41:31.767Z,8.19
2022-12-27T19:46:33.753Z,8.04
2022-12-27T19:51:37.255Z,8.00
2022-12-27T19:56:39.181Z,8.12
2022-12-27T20:01:42.607Z,7.77
2022-12-27T20:06:48.983Z,7.78
2022-12-27T20:11:53.654Z,8.14
2022-12-27T20:16:58.506Z,7.99
2022-12-27T20:22:00.758Z,8.33
2022-12-27T20:27:03.011Z,8.38
2022-12-27T20:32:06.870Z,8.29
2022-12-27T20:37:08.993Z,8.29
2022-12-27T20:42:12.170Z,8.23
2022-12-27T20:47:14.103Z,7.96
2022-12-27T20:52:16.637Z,7.99
2022-12-27T20:57:18.535Z,7.84
2022-12-27T21:02:20.616Z,7.81
2022-12-27T21:07:22.632Z,7.77
2022-12-27T21:12:24.748Z,7.73
2022-12-27T21:17:27.136Z,7.97
2022-12-27T21:22:29.000Z,8.02
2022-12-27T21:27:30.856Z,8.17
2022-12-27T21:32:32.875Z,8.37
2022-12-27T21:37:35.035Z,8.48
2022-12-27T21:42:36.913Z,8.42
2022-12-27T21:47:38.860Z,8.39
2022-12-27T21:52:40.891Z,8.60
2022-12-27T21:57:42.744Z,8.57
2022-12-27T22:02:44.756Z,8.74
2022-12-27T22:07:46.766Z,8.77
2022-12-27T22:12:48.751Z,8.71
2022-12-27T22:17:50.632Z,8.73
2022-12-27T22:22:52.484Z,8.85
2022-12-27T22:27:54.389Z,8.71
2022-12-27T22:32:56.291Z,8.50
2022-12-27T22:37:58.439Z,8.74
2022-12-27T22:43:00.295Z,8.53
2022-12-27T22:48:02.222Z,8.59
2022-12-27T22:53:04.249Z,8.63
2022-12-27T22:58:06.146Z,8.68
2022-12-27T23:03:08.045Z,8.46
2022-12-27T23:08:09.910Z,8.46
2022-12-27T23:13:11.791Z,8.57
2022-12-27T23:18:13.678Z,8.44
2022-12-27T23:23:15.552Z,8.47
2022-12-27T23:28:17.442Z,8.35
2022-12-27T23:33:19.482Z,8.29
2022-12-27T23:38:21.397Z,8.31
2022-12-27T23:43:51.100Z,8.34
2022-12-27T23:48:45.806Z,8.22
2022-12-27T23:53:47.946Z,8.09
2022-12-27T23:58:52.080Z,8.03
